sensor_id;sensor_type;location;lat;lon;timestamp;P1;durP1;ratioP1;P2;durP2;ratioP2
23123;SDS011;11731;48.592;8.858;2023-04-24T00:00:15;2.60;;;1.10;;
23123;SDS011;11731;48.592;8.858;2023-04-24T00:02:50;1.00;;;1.00;;
23123;SDS011;11731;48.592;8.858;2023-04-24T00:05:17;1.27;;;1.00;;
23123;SDS011;11731;48.592;8.858;2023-04-24T00:07:44;0.80;;;0.70;;
23123;SDS011;11731;48.592;8.858;2023-04-24T00:10:25;0.77;;;0.77;;
23123;SDS011;11731;48.592;8.858;2023-04-24T00:13:27;1.33;;;1.10;;
23123;SDS011;11731;48.592;8.858;2023-04-24T00:15:56;3.10;;;1.30;;
23123;SDS011;11731;48.592;8.858;2023-04-24T00:18:44;1.47;;;0.90;;
23123;SDS011;11731;48.592;8.858;2023-04-24T00:21:12;4.10;;;1.30;;
23123;SDS011;11731;48.592;8.858;2023-04-24T00:23:40;2.73;;;1.10;;
23123;SDS011;11731;48.592;8.858;2023-04-24T00:26:06;1.60;;;1.20;;
23123;SDS011;11731;48.592;8.858;2023-04-24T00:28:36;1.40;;;1.00;;
23123;SDS011;11731;48.592;8.858;2023-04-24T00:31:03;2.10;;;1.17;;
23123;SDS011;11731;48.592;8.858;2023-04-24T00:33:47;3.30;;;1.30;;
23123;SDS011;11731;48.592;8.858;2023-04-24T00:36:15;1.40;;;1.00;;
23123;SDS011;11731;48.592;8.858;2023-04-24T00:38:42;2.03;;;1.03;;
23123;SDS011;11731;48.592;8.858;2023-04-24T00:41:09;2.40;;;1.20;;
23123;SDS011;11731;48.592;8.858;2023-04-24T00:43:41;2.73;;;1.37;;
23123;SDS011;11731;48.592;8.858;2023-04-24T00:46:14;2.70;;;1.20;;
23123;SDS011;11731;48.592;8.858;2023-04-24T00:52:01;1.07;;;1.00;;
23123;SDS011;11731;48.592;8.858;2023-04-24T00:54:32;1.70;;;1.20;;
23123;SDS011;11731;48.592;8.858;2023-04-24T01:00:18;1.90;;;0.90;;
23123;SDS011;11731;48.592;8.858;2023-04-24T01:02:48;2.13;;;1.30;;
23123;SDS011;11731;48.592;8.858;2023-04-24T01:05:21;1.47;;;1.37;;
23123;SDS011;11731;48.592;8.858;2023-04-24T01:07:59;1.50;;;1.40;;
23123;SDS011;11731;48.592;8.858;2023-04-24T01:10:36;1.60;;;1.50;;
23123;SDS011;11731;48.592;8.858;2023-04-24T01:13:17;1.60;;;1.50;;
23123;SDS011;11731;48.592;8.858;2023-04-24T01:16:05;1.00;;;1.00;;
23123;SDS011;11731;48.592;8.858;2023-04-24T01:18:32;3.07;;;1.00;;
23123;SDS011;11731;48.592;8.858;2023-04-24T01:20:59;1.93;;;0.93;;
23123;SDS011;11731;48.592;8.858;2023-04-24T01:26:25;0.90;;;0.90;;
23123;SDS011;11731;48.592;8.858;2023-04-24T01:36:32;2.97;;;1.00;;
23123;SDS011;11731;48.592;8.858;2023-04-24T01:39:05;0.80;;;0.80;;
23123;SDS011;11731;48.592;8.858;2023-04-24T01:41:32;1.60;;;1.00;;
23123;SDS011;11731;48.592;8.858;2023-04-24T01:44:00;1.83;;;1.43;;
23123;SDS011;11731;48.592;8.858;2023-04-24T01:46:30;2.07;;;1.43;;
23123;SDS011;11731;48.592;8.858;2023-04-24T01:49:14;1.47;;;1.20;;
23123;SDS011;11731;48.592;8.858;2023-04-24T01:52:04;1.37;;;0.90;;
23123;SDS011;11731;48.592;8.858;2023-04-24T01:54:35;1.40;;;0.97;;
23123;SDS011;11731;48.592;8.858;2023-04-24T01:57:07;2.13;;;1.10;;
23123;SDS011;11731;48.592;8.858;2023-04-24T02:02:50;1.30;;;0.90;;
23123;SDS011;11731;48.592;8.858;2023-04-24T02:05:17;0.83;;;0.83;;
23123;SDS011;11731;48.592;8.858;2023-04-24T02:11:09;1.67;;;1.00;;
23123;SDS011;11731;48.592;8.858;2023-04-24T02:13:36;1.30;;;1.00;;
23123;SDS011;11731;48.592;8.858;2023-04-24T02:16:03;2.63;;;1.70;;
23123;SDS011;11731;48.592;8.858;2023-04-24T02:18:30;1.57;;;1.30;;
23123;SDS011;11731;48.592;8.858;2023-04-24T02:24:15;1.97;;;1.00;;
23123;SDS011;11731;48.592;8.858;2023-04-24T02:26:48;1.33;;;1.13;;
23123;SDS011;11731;48.592;8.858;2023-04-24T02:34:20;1.93;;;1.20;;
23123;SDS011;11731;48.592;8.858;2023-04-24T02:46:48;1.33;;;1.23;;
23123;SDS011;11731;48.592;8.858;2023-04-24T02:49:15;1.10;;;1.00;;
23123;SDS011;11731;48.592;8.858;2023-04-24T02:51:42;3.47;;;1.27;;
23123;SDS011;11731;48.592;8.858;2023-04-24T02:54:22;1.80;;;1.33;;
23123;SDS011;11731;48.592;8.858;2023-04-24T02:57:00;1.93;;;1.50;;
23123;SDS011;11731;48.592;8.858;2023-04-24T03:00:02;2.27;;;1.30;;
23123;SDS011;11731;48.592;8.858;2023-04-24T03:02:34;2.00;;;1.10;;
23123;SDS011;11731;48.592;8.858;2023-04-24T03:05:38;1.80;;;1.20;;
23123;SDS011;11731;48.592;8.858;2023-04-24T03:08:07;3.50;;;1.40;;
23123;SDS011;11731;48.592;8.858;2023-04-24T03:10:48;1.93;;;1.33;;
23123;SDS011;11731;48.592;8.858;2023-04-24T03:13:20;2.23;;;1.20;;
23123;SDS011;11731;48.592;8.858;2023-04-24T03:22:19;2.90;;;1.43;;
23123;SDS011;11731;48.592;8.858;2023-04-24T03:25:01;1.40;;;1.10;;
23123;SDS011;11731;48.592;8.858;2023-04-24T03:27:28;3.73;;;1.43;;
23123;SDS011;11731;48.592;8.858;2023-04-24T03:30:20;1.87;;;1.20;;
23123;SDS011;11731;48.592;8.858;2023-04-24T03:33:52;2.43;;;1.13;;
23123;SDS011;11731;48.592;8.858;2023-04-24T03:42:28;1.60;;;1.23;;
23123;SDS011;11731;48.592;8.858;2023-04-24T03:45:07;2.03;;;1.27;;
23123;SDS011;11731;48.592;8.858;2023-04-24T03:47:39;2.47;;;1.60;;
23123;SDS011;11731;48.592;8.858;2023-04-24T03:50:06;2.77;;;1.47;;
23123;SDS011;11731;48.592;8.858;2023-04-24T03:53:08;1.50;;;1.23;;
23123;SDS011;11731;48.592;8.858;2023-04-24T03:58:35;1.60;;;1.00;;
23123;SDS011;11731;48.592;8.858;2023-04-24T04:01:04;0.93;;;0.80;;
23123;SDS011;11731;48.592;8.858;2023-04-24T04:03:31;1.43;;;0.80;;
23123;SDS011;11731;48.592;8.858;2023-04-24T04:06:00;2.63;;;0.77;;
23123;SDS011;11731;48.592;8.858;2023-04-24T04:15:37;1.03;;;0.70;;
23123;SDS011;11731;48.592;8.858;2023-04-24T04:18:04;0.57;;;0.57;;
23123;SDS011;11731;48.592;8.858;2023-04-24T04:20:31;1.00;;;1.00;;
23123;SDS011;11731;48.592;8.858;2023-04-24T04:23:01;2.37;;;0.80;;
23123;SDS011;11731;48.592;8.858;2023-04-24T04:25:42;4.50;;;1.17;;
23123;SDS011;11731;48.592;8.858;2023-04-24T04:28:09;0.80;;;0.80;;
23123;SDS011;11731;48.592;8.858;2023-04-24T04:30:37;1.87;;;0.87;;
23123;SDS011;11731;48.592;8.858;2023-04-24T04:33:09;1.67;;;1.20;;
23123;SDS011;11731;48.592;8.858;2023-04-24T04:35:39;1.23;;;0.90;;
23123;SDS011;11731;48.592;8.858;2023-04-24T04:38:07;1.53;;;1.10;;
23123;SDS011;11731;48.592;8.858;2023-04-24T04:40:36;1.10;;;1.00;;
23123;SDS011;11731;48.592;8.858;2023-04-24T04:46:08;0.80;;;0.80;;
23123;SDS011;11731;48.592;8.858;2023-04-24T04:48:36;0.60;;;0.60;;
23123;SDS011;11731;48.592;8.858;2023-04-24T04:51:17;0.90;;;0.60;;
23123;SDS011;11731;48.592;8.858;2023-04-24T04:53:44;0.70;;;0.70;;
23123;SDS011;11731;48.592;8.858;2023-04-24T04:56:10;0.90;;;0.70;;
23123;SDS011;11731;48.592;8.858;2023-04-24T04:58:37;0.87;;;0.80;;
23123;SDS011;11731;48.592;8.858;2023-04-24T05:01:04;1.33;;;0.83;;
23123;SDS011;11731;48.592;8.858;2023-04-24T05:03:33;1.77;;;0.90;;
23123;SDS011;11731;48.592;8.858;2023-04-24T05:06:00;1.07;;;0.80;;
23123;SDS011;11731;48.592;8.858;2023-04-24T05:08:37;1.00;;;0.90;;
23123;SDS011;11731;48.592;8.858;2023-04-24T05:11:04;1.57;;;0.90;;
23123;SDS011;11731;48.592;8.858;2023-04-24T05:13:31;1.07;;;0.83;;
23123;SDS011;11731;48.592;8.858;2023-04-24T05:15:58;1.20;;;1.10;;
23123;SDS011;11731;48.592;8.858;2023-04-24T05:18:36;1.30;;;1.00;;
23123;SDS011;11731;48.592;8.858;2023-04-24T05:28:04;1.23;;;1.03;;
23123;SDS011;11731;48.592;8.858;2023-04-24T05:30:32;0.97;;;0.87;;
23123;SDS011;11731;48.592;8.858;2023-04-24T05:39:07;1.40;;;0.90;;
23123;SDS011;11731;48.592;8.858;2023-04-24T05:41:34;1.10;;;1.00;;
23123;SDS011;11731;48.592;8.858;2023-04-24T05:44:31;1.87;;;1.20;;
23123;SDS011;11731;48.592;8.858;2023-04-24T05:47:22;2.10;;;1.37;;
23123;SDS011;11731;48.592;8.858;2023-04-24T05:49:51;2.37;;;1.33;;
23123;SDS011;11731;48.592;8.858;2023-04-24T05:52:18;1.73;;;1.30;;
23123;SDS011;11731;48.592;8.858;2023-04-24T05:54:50;0.83;;;0.83;;
23123;SDS011;11731;48.592;8.858;2023-04-24T05:58:20;1.40;;;1.30;;
23123;SDS011;11731;48.592;8.858;2023-04-24T06:00:34;1.23;;;1.13;;
23123;SDS011;11731;48.592;8.858;2023-04-24T06:03:13;2.33;;;1.53;;
23123;SDS011;11731;48.592;8.858;2023-04-24T06:09:25;1.77;;;1.67;;
23123;SDS011;11731;48.592;8.858;2023-04-24T06:11:54;1.90;;;1.57;;
23123;SDS011;11731;48.592;8.858;2023-04-24T06:14:25;1.60;;;1.50;;
23123;SDS011;11731;48.592;8.858;2023-04-24T06:16:52;2.10;;;1.50;;
23123;SDS011;11731;48.592;8.858;2023-04-24T06:19:33;2.73;;;1.73;;
23123;SDS011;11731;48.592;8.858;2023-04-24T06:22:03;4.23;;;1.73;;
23123;SDS011;11731;48.592;8.858;2023-04-24T06:24:30;2.23;;;1.50;;
23123;SDS011;11731;48.592;8.858;2023-04-24T06:26:59;1.73;;;1.37;;
23123;SDS011;11731;48.592;8.858;2023-04-24T06:29:26;1.70;;;1.60;;
23123;SDS011;11731;48.592;8.858;2023-04-24T06:31:53;2.53;;;1.60;;
23123;SDS011;11731;48.592;8.858;2023-04-24T06:34:25;1.93;;;1.67;;
23123;SDS011;11731;48.592;8.858;2023-04-24T06:36:57;1.60;;;1.30;;
23123;SDS011;11731;48.592;8.858;2023-04-24T06:39:24;1.30;;;1.20;;
23123;SDS011;11731;48.592;8.858;2023-04-24T06:41:51;1.77;;;1.30;;
23123;SDS011;11731;48.592;8.858;2023-04-24T06:44:20;1.63;;;1.40;;
23123;SDS011;11731;48.592;8.858;2023-04-24T06:46:47;1.33;;;1.23;;
23123;SDS011;11731;48.592;8.858;2023-04-24T06:49:14;1.30;;;1.20;;
23123;SDS011;11731;48.592;8.858;2023-04-24T06:51:41;2.03;;;1.27;;
23123;SDS011;11731;48.592;8.858;2023-04-24T06:57:59;1.33;;;1.10;;
23123;SDS011;11731;48.592;8.858;2023-04-24T07:00:02;1.40;;;1.20;;
23123;SDS011;11731;48.592;8.858;2023-04-24T07:03:05;1.00;;;0.90;;
23123;SDS011;11731;48.592;8.858;2023-04-24T07:05:22;2.53;;;0.90;;
23123;SDS011;11731;48.592;8.858;2023-04-24T07:07:49;0.80;;;0.80;;
23123;SDS011;11731;48.592;8.858;2023-04-24T07:10:16;1.00;;;1.00;;
23123;SDS011;11731;48.592;8.858;2023-04-24T07:12:45;1.47;;;0.90;;
23123;SDS011;11731;48.592;8.858;2023-04-24T07:15:13;1.27;;;1.00;;
23123;SDS011;11731;48.592;8.858;2023-04-24T07:17:41;0.80;;;0.80;;
23123;SDS011;11731;48.592;8.858;2023-04-24T07:20:08;0.70;;;0.70;;
23123;SDS011;11731;48.592;8.858;2023-04-24T07:22:37;1.30;;;1.00;;
23123;SDS011;11731;48.592;8.858;2023-04-24T07:25:04;1.47;;;0.90;;
23123;SDS011;11731;48.592;8.858;2023-04-24T07:27:31;3.37;;;0.90;;
23123;SDS011;11731;48.592;8.858;2023-04-24T07:29:58;1.00;;;0.90;;
23123;SDS011;11731;48.592;8.858;2023-04-24T07:32:27;0.83;;;0.80;;
23123;SDS011;11731;48.592;8.858;2023-04-24T07:34:54;1.03;;;0.93;;
23123;SDS011;11731;48.592;8.858;2023-04-24T07:37:21;1.00;;;0.87;;
23123;SDS011;11731;48.592;8.858;2023-04-24T07:39:48;0.80;;;0.77;;
23123;SDS011;11731;48.592;8.858;2023-04-24T07:42:16;0.90;;;0.90;;
23123;SDS011;11731;48.592;8.858;2023-04-24T07:44:42;1.40;;;1.10;;
23123;SDS011;11731;48.592;8.858;2023-04-24T07:47:10;1.00;;;0.90;;
23123;SDS011;11731;48.592;8.858;2023-04-24T07:49:39;1.80;;;1.10;;
23123;SDS011;11731;48.592;8.858;2023-04-24T07:52:06;1.30;;;1.20;;
23123;SDS011;11731;48.592;8.858;2023-04-24T07:54:33;1.73;;;1.10;;
23123;SDS011;11731;48.592;8.858;2023-04-24T07:57:02;1.43;;;1.03;;
23123;SDS011;11731;48.592;8.858;2023-04-24T07:59:29;1.30;;;1.20;;
23123;SDS011;11731;48.592;8.858;2023-04-24T08:01:56;1.50;;;1.40;;
23123;SDS011;11731;48.592;8.858;2023-04-24T08:04:23;2.00;;;0.90;;
23123;SDS011;11731;48.592;8.858;2023-04-24T08:06:51;1.83;;;1.30;;
23123;SDS011;11731;48.592;8.858;2023-04-24T08:09:18;2.67;;;1.20;;
23123;SDS011;11731;48.592;8.858;2023-04-24T08:11:45;3.60;;;1.10;;
23123;SDS011;11731;48.592;8.858;2023-04-24T08:14:11;4.07;;;1.40;;
23123;SDS011;11731;48.592;8.858;2023-04-24T08:16:39;2.43;;;1.20;;
23123;SDS011;11731;48.592;8.858;2023-04-24T08:19:06;1.40;;;1.30;;
23123;SDS011;11731;48.592;8.858;2023-04-24T08:21:33;2.03;;;1.20;;
23123;SDS011;11731;48.592;8.858;2023-04-24T08:24:02;1.23;;;1.10;;
23123;SDS011;11731;48.592;8.858;2023-04-24T08:26:32;1.00;;;1.00;;
23123;SDS011;11731;48.592;8.858;2023-04-24T08:28:59;1.60;;;1.10;;
23123;SDS011;11731;48.592;8.858;2023-04-24T08:31:26;1.87;;;1.10;;
23123;SDS011;11731;48.592;8.858;2023-04-24T08:33:53;1.30;;;1.20;;
23123;SDS011;11731;48.592;8.858;2023-04-24T08:36:20;3.67;;;1.23;;
23123;SDS011;11731;48.592;8.858;2023-04-24T08:38:50;1.40;;;1.20;;
23123;SDS011;11731;48.592;8.858;2023-04-24T08:41:18;1.67;;;1.20;;
23123;SDS011;11731;48.592;8.858;2023-04-24T08:43:46;2.33;;;1.20;;
23123;SDS011;11731;48.592;8.858;2023-04-24T08:46:13;1.97;;;1.10;;
23123;SDS011;11731;48.592;8.858;2023-04-24T08:48:42;1.80;;;1.43;;
23123;SDS011;11731;48.592;8.858;2023-04-24T08:51:09;3.23;;;1.40;;
23123;SDS011;11731;48.592;8.858;2023-04-24T08:53:36;3.00;;;1.30;;
23123;SDS011;11731;48.592;8.858;2023-04-24T08:56:03;1.47;;;1.13;;
23123;SDS011;11731;48.592;8.858;2023-04-24T08:58:32;4.17;;;1.33;;
23123;SDS011;11731;48.592;8.858;2023-04-24T09:00:59;1.07;;;0.93;;
23123;SDS011;11731;48.592;8.858;2023-04-24T09:03:27;1.30;;;1.10;;
23123;SDS011;11731;48.592;8.858;2023-04-24T09:05:55;2.10;;;1.30;;
23123;SDS011;11731;48.592;8.858;2023-04-24T09:08:23;1.23;;;0.87;;
23123;SDS011;11731;48.592;8.858;2023-04-24T09:10:51;1.20;;;0.90;;
23123;SDS011;11731;48.592;8.858;2023-04-24T09:13:18;2.80;;;1.50;;
23123;SDS011;11731;48.592;8.858;2023-04-24T09:15:47;1.47;;;1.10;;
23123;SDS011;11731;48.592;8.858;2023-04-24T09:18:14;2.27;;;1.20;;
23123;SDS011;11731;48.592;8.858;2023-04-24T09:20:57;1.50;;;1.10;;
23123;SDS011;11731;48.592;8.858;2023-04-24T09:23:25;1.20;;;0.80;;
23123;SDS011;11731;48.592;8.858;2023-04-24T09:25:54;2.67;;;1.20;;
23123;SDS011;11731;48.592;8.858;2023-04-24T09:28:25;1.67;;;1.10;;
23123;SDS011;11731;48.592;8.858;2023-04-24T09:31:07;1.13;;;0.97;;
23123;SDS011;11731;48.592;8.858;2023-04-24T09:33:35;2.73;;;1.00;;
23123;SDS011;11731;48.592;8.858;2023-04-24T09:36:03;1.07;;;0.97;;
23123;SDS011;11731;48.592;8.858;2023-04-24T09:38:31;0.90;;;0.83;;
23123;SDS011;11731;48.592;8.858;2023-04-24T09:40:59;2.00;;;0.70;;
23123;SDS011;11731;48.592;8.858;2023-04-24T09:43:28;0.63;;;0.63;;
23123;SDS011;11731;48.592;8.858;2023-04-24T09:45:58;0.73;;;0.73;;
23123;SDS011;11731;48.592;8.858;2023-04-24T09:48:31;1.30;;;0.77;;
23123;SDS011;11731;48.592;8.858;2023-04-24T09:50:59;2.00;;;0.87;;
23123;SDS011;11731;48.592;8.858;2023-04-24T09:53:28;2.07;;;0.97;;
23123;SDS011;11731;48.592;8.858;2023-04-24T09:55:56;1.50;;;1.00;;
23123;SDS011;11731;48.592;8.858;2023-04-24T09:58:28;2.23;;;1.10;;
23123;SDS011;11731;48.592;8.858;2023-04-24T10:00:56;1.00;;;0.90;;
23123;SDS011;11731;48.592;8.858;2023-04-24T10:03:24;1.07;;;0.97;;
23123;SDS011;11731;48.592;8.858;2023-04-24T10:05:54;1.87;;;0.80;;
23123;SDS011;11731;48.592;8.858;2023-04-24T10:08:24;1.53;;;1.00;;
23123;SDS011;11731;48.592;8.858;2023-04-24T10:10:52;0.73;;;0.73;;
23123;SDS011;11731;48.592;8.858;2023-04-24T10:13:19;1.23;;;1.00;;
23123;SDS011;11731;48.592;8.858;2023-04-24T10:15:46;1.97;;;0.90;;
23123;SDS011;11731;48.592;8.858;2023-04-24T10:18:14;0.93;;;0.93;;
23123;SDS011;11731;48.592;8.858;2023-04-24T10:20:42;1.30;;;1.00;;
23123;SDS011;11731;48.592;8.858;2023-04-24T10:23:10;1.07;;;0.83;;
23123;SDS011;11731;48.592;8.858;2023-04-24T10:25:38;1.47;;;1.00;;
23123;SDS011;11731;48.592;8.858;2023-04-24T10:28:05;3.77;;;1.30;;
23123;SDS011;11731;48.592;8.858;2023-04-24T10:30:32;1.10;;;1.00;;
23123;SDS011;11731;48.592;8.858;2023-04-24T10:33:01;2.83;;;1.10;;
23123;SDS011;11731;48.592;8.858;2023-04-24T10:35:30;1.97;;;1.10;;
23123;SDS011;11731;48.592;8.858;2023-04-24T10:37:59;1.00;;;0.90;;
23123;SDS011;11731;48.592;8.858;2023-04-24T10:40:31;1.37;;;0.90;;
23123;SDS011;11731;48.592;8.858;2023-04-24T10:42:59;0.90;;;0.90;;
23123;SDS011;11731;48.592;8.858;2023-04-24T10:45:28;1.83;;;1.00;;
23123;SDS011;11731;48.592;8.858;2023-04-24T10:47:58;2.03;;;1.30;;
23123;SDS011;11731;48.592;8.858;2023-04-24T10:50:27;1.10;;;1.00;;
23123;SDS011;11731;48.592;8.858;2023-04-24T10:53:04;1.00;;;1.00;;
23123;SDS011;11731;48.592;8.858;2023-04-24T10:55:43;0.80;;;0.80;;
23123;SDS011;11731;48.592;8.858;2023-04-24T10:58:12;1.67;;;1.00;;
23123;SDS011;11731;48.592;8.858;2023-04-24T11:00:40;1.03;;;1.00;;
23123;SDS011;11731;48.592;8.858;2023-04-24T11:03:12;0.77;;;0.77;;
23123;SDS011;11731;48.592;8.858;2023-04-24T11:05:50;2.07;;;0.97;;
23123;SDS011;11731;48.592;8.858;2023-04-24T11:08:25;1.23;;;0.97;;
23123;SDS011;11731;48.592;8.858;2023-04-24T11:10:56;0.77;;;0.70;;
23123;SDS011;11731;48.592;8.858;2023-04-24T11:13:24;0.80;;;0.80;;
23123;SDS011;11731;48.592;8.858;2023-04-24T11:16:13;1.80;;;1.00;;
23123;SDS011;11731;48.592;8.858;2023-04-24T11:18:50;0.63;;;0.60;;
23123;SDS011;11731;48.592;8.858;2023-04-24T11:21:19;1.20;;;0.80;;
23123;SDS011;11731;48.592;8.858;2023-04-24T11:23:46;0.93;;;0.83;;
23123;SDS011;11731;48.592;8.858;2023-04-24T11:26:18;1.63;;;0.90;;
23123;SDS011;11731;48.592;8.858;2023-04-24T11:28:49;1.10;;;1.00;;
23123;SDS011;11731;48.592;8.858;2023-04-24T11:31:35;0.80;;;0.70;;
23123;SDS011;11731;48.592;8.858;2023-04-24T11:34:07;1.83;;;1.20;;
23123;SDS011;11731;48.592;8.858;2023-04-24T11:36:34;1.30;;;1.20;;
23123;SDS011;11731;48.592;8.858;2023-04-24T11:39:01;0.83;;;0.80;;
23123;SDS011;11731;48.592;8.858;2023-04-24T11:41:30;1.07;;;1.03;;
23123;SDS011;11731;48.592;8.858;2023-04-24T11:43:58;0.90;;;0.90;;
23123;SDS011;11731;48.592;8.858;2023-04-24T11:46:28;3.47;;;1.23;;
23123;SDS011;11731;48.592;8.858;2023-04-24T11:48:56;1.00;;;1.00;;
23123;SDS011;11731;48.592;8.858;2023-04-24T11:51:24;1.10;;;1.00;;
23123;SDS011;11731;48.592;8.858;2023-04-24T11:53:52;3.30;;;1.27;;
23123;SDS011;11731;48.592;8.858;2023-04-24T11:58:54;1.47;;;1.10;;
23123;SDS011;11731;48.592;8.858;2023-04-24T12:02:05;1.37;;;1.00;;
23123;SDS011;11731;48.592;8.858;2023-04-24T12:07:56;0.87;;;0.87;;
23123;SDS011;11731;48.592;8.858;2023-04-24T12:10:56;0.97;;;0.80;;
23123;SDS011;11731;48.592;8.858;2023-04-24T12:19:44;1.23;;;1.10;;
23123;SDS011;11731;48.592;8.858;2023-04-24T12:22:47;1.60;;;0.97;;
23123;SDS011;11731;48.592;8.858;2023-04-24T12:25:32;1.30;;;1.03;;
23123;SDS011;11731;48.592;8.858;2023-04-24T12:28:24;1.83;;;1.30;;
23123;SDS011;11731;48.592;8.858;2023-04-24T12:31:34;1.03;;;1.00;;
23123;SDS011;11731;48.592;8.858;2023-04-24T12:33:54;1.20;;;1.10;;
23123;SDS011;11731;48.592;8.858;2023-04-24T12:38:58;1.07;;;0.90;;
23123;SDS011;11731;48.592;8.858;2023-04-24T12:44:33;1.73;;;1.40;;
23123;SDS011;11731;48.592;8.858;2023-04-24T12:47:02;1.57;;;1.47;;
23123;SDS011;11731;48.592;8.858;2023-04-24T12:49:29;1.53;;;1.30;;
23123;SDS011;11731;48.592;8.858;2023-04-24T12:58:41;1.20;;;1.10;;
23123;SDS011;11731;48.592;8.858;2023-04-24T13:01:08;3.33;;;1.50;;
23123;SDS011;11731;48.592;8.858;2023-04-24T13:03:35;1.60;;;1.50;;
23123;SDS011;11731;48.592;8.858;2023-04-24T13:11:15;3.10;;;1.30;;
23123;SDS011;11731;48.592;8.858;2023-04-24T13:17:32;1.97;;;1.20;;
23123;SDS011;11731;48.592;8.858;2023-04-24T13:20:14;1.43;;;1.33;;
23123;SDS011;11731;48.592;8.858;2023-04-24T13:22:42;1.73;;;1.57;;
23123;SDS011;11731;48.592;8.858;2023-04-24T13:27:54;1.60;;;1.50;;
23123;SDS011;11731;48.592;8.858;2023-04-24T13:30:21;1.27;;;1.17;;
23123;SDS011;11731;48.592;8.858;2023-04-24T13:32:50;1.33;;;1.20;;
23123;SDS011;11731;48.592;8.858;2023-04-24T13:35:25;2.23;;;1.20;;
23123;SDS011;11731;48.592;8.858;2023-04-24T13:41:37;2.87;;;1.30;;
23123;SDS011;11731;48.592;8.858;2023-04-24T13:44:37;1.70;;;1.50;;
23123;SDS011;11731;48.592;8.858;2023-04-24T13:49:21;1.20;;;1.10;;
23123;SDS011;11731;48.592;8.858;2023-04-24T14:09:41;1.77;;;1.30;;
23123;SDS011;11731;48.592;8.858;2023-04-24T14:15:12;2.63;;;1.50;;
23123;SDS011;11731;48.592;8.858;2023-04-24T14:17:39;1.47;;;1.30;;
23123;SDS011;11731;48.592;8.858;2023-04-24T14:20:45;1.63;;;1.23;;
23123;SDS011;11731;48.592;8.858;2023-04-24T14:23:11;2.80;;;1.33;;
23123;SDS011;11731;48.592;8.858;2023-04-24T14:25:48;1.40;;;1.30;;
23123;SDS011;11731;48.592;8.858;2023-04-24T14:29:20;1.83;;;1.30;;
23123;SDS011;11731;48.592;8.858;2023-04-24T14:32:48;1.67;;;1.13;;
23123;SDS011;11731;48.592;8.858;2023-04-24T14:34:57;1.67;;;1.23;;
23123;SDS011;11731;48.592;8.858;2023-04-24T14:37:23;1.93;;;1.10;;
23123;SDS011;11731;48.592;8.858;2023-04-24T14:40:22;2.77;;;1.60;;
23123;SDS011;11731;48.592;8.858;2023-04-24T14:42:58;1.33;;;1.03;;
23123;SDS011;11731;48.592;8.858;2023-04-24T14:48:42;1.50;;;1.20;;
23123;SDS011;11731;48.592;8.858;2023-04-24T14:51:09;1.60;;;1.30;;
23123;SDS011;11731;48.592;8.858;2023-04-24T14:53:59;1.30;;;1.20;;
23123;SDS011;11731;48.592;8.858;2023-04-24T14:56:28;3.10;;;1.33;;
23123;SDS011;11731;48.592;8.858;2023-04-24T15:05:43;1.40;;;1.30;;
23123;SDS011;11731;48.592;8.858;2023-04-24T15:12:29;1.40;;;1.23;;
23123;SDS011;11731;48.592;8.858;2023-04-24T15:14:38;2.30;;;1.27;;
23123;SDS011;11731;48.592;8.858;2023-04-24T15:17:05;1.67;;;1.50;;
23123;SDS011;11731;48.592;8.858;2023-04-24T15:23:18;1.50;;;1.30;;
23123;SDS011;11731;48.592;8.858;2023-04-24T15:25:54;1.40;;;1.13;;
23123;SDS011;11731;48.592;8.858;2023-04-24T15:33:04;1.40;;;1.30;;
23123;SDS011;11731;48.592;8.858;2023-04-24T15:35:18;1.37;;;1.27;;
23123;SDS011;11731;48.592;8.858;2023-04-24T15:37:45;1.33;;;1.23;;
23123;SDS011;11731;48.592;8.858;2023-04-24T15:40:13;1.47;;;0.97;;
23123;SDS011;11731;48.592;8.858;2023-04-24T15:42:43;1.50;;;1.10;;
23123;SDS011;11731;48.592;8.858;2023-04-24T15:45:41;1.67;;;1.17;;
23123;SDS011;11731;48.592;8.858;2023-04-24T15:49:01;1.30;;;1.20;;
23123;SDS011;11731;48.592;8.858;2023-04-24T15:51:21;1.27;;;1.17;;
23123;SDS011;11731;48.592;8.858;2023-04-24T15:53:48;1.83;;;1.23;;
23123;SDS011;11731;48.592;8.858;2023-04-24T15:56:16;1.30;;;1.10;;
23123;SDS011;11731;48.592;8.858;2023-04-24T15:58:46;1.77;;;1.20;;
23123;SDS011;11731;48.592;8.858;2023-04-24T16:02:16;1.43;;;1.33;;
23123;SDS011;11731;48.592;8.858;2023-04-24T16:04:22;1.50;;;1.30;;
23123;SDS011;11731;48.592;8.858;2023-04-24T16:16:15;1.57;;;1.00;;
23123;SDS011;11731;48.592;8.858;2023-04-24T16:19:10;1.20;;;1.10;;
23123;SDS011;11731;48.592;8.858;2023-04-24T16:22:40;1.33;;;1.20;;
23123;SDS011;11731;48.592;8.858;2023-04-24T16:24:48;1.20;;;1.10;;
23123;SDS011;11731;48.592;8.858;2023-04-24T16:27:17;1.40;;;1.20;;
23123;SDS011;11731;48.592;8.858;2023-04-24T16:30:08;1.30;;;1.20;;
23123;SDS011;11731;48.592;8.858;2023-04-24T16:39:12;1.60;;;1.50;;
23123;SDS011;11731;48.592;8.858;2023-04-24T16:41:40;1.20;;;1.10;;
23123;SDS011;11731;48.592;8.858;2023-04-24T16:44:07;1.80;;;1.20;;
23123;SDS011;11731;48.592;8.858;2023-04-24T16:46:48;1.10;;;1.00;;
23123;SDS011;11731;48.592;8.858;2023-04-24T16:49:15;2.23;;;1.23;;
23123;SDS011;11731;48.592;8.858;2023-04-24T16:51:42;1.73;;;1.40;;
23123;SDS011;11731;48.592;8.858;2023-04-24T16:54:12;1.93;;;1.07;;
23123;SDS011;11731;48.592;8.858;2023-04-24T16:59:16;1.30;;;1.20;;
23123;SDS011;11731;48.592;8.858;2023-04-24T17:01:42;1.80;;;1.20;;
23123;SDS011;11731;48.592;8.858;2023-04-24T17:04:14;1.70;;;1.20;;
23123;SDS011;11731;48.592;8.858;2023-04-24T17:07:25;2.10;;;1.50;;
23123;SDS011;11731;48.592;8.858;2023-04-24T17:11:11;1.83;;;1.20;;
23123;SDS011;11731;48.592;8.858;2023-04-24T17:13:32;2.67;;;1.20;;
23123;SDS011;11731;48.592;8.858;2023-04-24T17:23:05;1.97;;;1.50;;
23123;SDS011;11731;48.592;8.858;2023-04-24T17:25:38;1.20;;;1.10;;
23123;SDS011;11731;48.592;8.858;2023-04-24T17:28:06;3.93;;;1.20;;
23123;SDS011;11731;48.592;8.858;2023-04-24T17:30:41;1.97;;;1.40;;
23123;SDS011;11731;48.592;8.858;2023-04-24T17:33:08;2.17;;;1.60;;
23123;SDS011;11731;48.592;8.858;2023-04-24T17:35:35;2.03;;;1.20;;
23123;SDS011;11731;48.592;8.858;2023-04-24T17:41:20;2.43;;;1.63;;
23123;SDS011;11731;48.592;8.858;2023-04-24T17:43:46;2.53;;;1.77;;
23123;SDS011;11731;48.592;8.858;2023-04-24T17:46:14;6.33;;;1.53;;
23123;SDS011;11731;48.592;8.858;2023-04-24T17:48:42;1.87;;;1.67;;
23123;SDS011;11731;48.592;8.858;2023-04-24T17:51:09;1.60;;;1.50;;
23123;SDS011;11731;48.592;8.858;2023-04-24T17:53:36;1.50;;;1.40;;
23123;SDS011;11731;48.592;8.858;2023-04-24T17:56:03;2.07;;;1.57;;
23123;SDS011;11731;48.592;8.858;2023-04-24T17:58:32;1.50;;;1.40;;
23123;SDS011;11731;48.592;8.858;2023-04-24T18:00:59;1.93;;;1.43;;
23123;SDS011;11731;48.592;8.858;2023-04-24T18:03:27;2.00;;;1.57;;
23123;SDS011;11731;48.592;8.858;2023-04-24T18:05:54;1.43;;;1.33;;
23123;SDS011;11731;48.592;8.858;2023-04-24T18:08:21;3.43;;;1.53;;
23123;SDS011;11731;48.592;8.858;2023-04-24T18:10:48;1.67;;;1.57;;
23123;SDS011;11731;48.592;8.858;2023-04-24T18:13:15;3.43;;;1.80;;
23123;SDS011;11731;48.592;8.858;2023-04-24T18:15:43;2.57;;;1.67;;
23123;SDS011;11731;48.592;8.858;2023-04-24T18:18:10;2.40;;;1.40;;
23123;SDS011;11731;48.592;8.858;2023-04-24T18:20:37;2.80;;;1.67;;
23123;SDS011;11731;48.592;8.858;2023-04-24T18:23:04;1.70;;;1.60;;
23123;SDS011;11731;48.592;8.858;2023-04-24T18:25:31;2.53;;;1.50;;
23123;SDS011;11731;48.592;8.858;2023-04-24T18:27:58;2.30;;;1.50;;
23123;SDS011;11731;48.592;8.858;2023-04-24T18:30:24;1.87;;;1.63;;
23123;SDS011;11731;48.592;8.858;2023-04-24T18:32:53;2.17;;;1.67;;
23123;SDS011;11731;48.592;8.858;2023-04-24T18:35:20;1.70;;;1.53;;
23123;SDS011;11731;48.592;8.858;2023-04-24T18:37:48;2.20;;;1.67;;
23123;SDS011;11731;48.592;8.858;2023-04-24T18:40:15;1.43;;;1.33;;